sensor_id;sensor_type;location;lat;lon;timestamp;pressure;altitude;pressure_sealevel;temperature;humidity
53916;BME280;39827;49.652;18.770;2023-02-18T00:00:10;96319.41;;;9.91;100.00
53916;BME280;39827;49.652;18.770;2023-02-18T00:02:37;96321.69;;;9.77;100.00
53916;BME280;39827;49.652;18.770;2023-02-18T00:05:02;96314.75;;;9.71;100.00
53916;BME280;39827;49.652;18.770;2023-02-18T00:07:28;96317.28;;;9.12;100.00
53916;BME280;39827;49.652;18.770;2023-02-18T00:09:53;96321.94;;;9.32;100.00
53916;BME280;39827;49.652;18.770;2023-02-18T00:12:18;96318.53;;;9.37;100.00
53916;BME280;39827;49.652;18.770;2023-02-18T00:14:44;96315.41;;;9.45;100.00
53916;BME280;39827;49.652;18.770;2023-02-18T00:17:09;96312.03;;;9.55;100.00
53916;BME280;39827;49.652;18.770;2023-02-18T00:19:34;96320.56;;;9.62;100.00
53916;BME280;39827;49.652;18.770;2023-02-18T00:22:00;96334.59;;;9.68;100.00
53916;BME280;39827;49.652;18.770;2023-02-18T00:24:25;96321.63;;;9.67;100.00
53916;BME280;39827;49.652;18.770;2023-02-18T00:26:51;96325.34;;;9.71;100.00
53916;BME280;39827;49.652;18.770;2023-02-18T00:29:18;96331.75;;;9.80;100.00
53916;BME280;39827;49.652;18.770;2023-02-18T00:31:44;96338.88;;;9.80;100.00
53916;BME280;39827;49.652;18.770;2023-02-18T00:34:10;96344.56;;;9.99;99.80
53916;BME280;39827;49.652;18.770;2023-02-18T00:36:36;96319.34;;;9.86;100.00
53916;BME280;39827;49.652;18.770;2023-02-18T00:39:05;96319.13;;;9.93;97.92
53916;BME280;39827;49.652;18.770;2023-02-18T00:41:32;96331.47;;;9.82;97.56
53916;BME280;39827;49.652;18.770;2023-02-18T00:43:57;96328.16;;;9.54;99.25
53916;BME280;39827;49.652;18.770;2023-02-18T00:46:24;96341.25;;;9.76;99.13
53916;BME280;39827;49.652;18.770;2023-02-18T00:48:49;96332.13;;;9.56;98.92
53916;BME280;39827;49.652;18.770;2023-02-18T00:51:15;96326.75;;;9.41;98.12
53916;BME280;39827;49.652;18.770;2023-02-18T00:53:41;96327.50;;;9.03;97.48
53916;BME280;39827;49.652;18.770;2023-02-18T00:56:06;96327.16;;;8.94;100.00
53916;BME280;39827;49.652;18.770;2023-02-18T00:58:33;96326.66;;;8.97;100.00
53916;BME280;39827;49.652;18.770;2023-02-18T01:00:59;96326.91;;;8.68;99.62
53916;BME280;39827;49.652;18.770;2023-02-18T01:03:25;96328.50;;;8.64;100.00
53916;BME280;39827;49.652;18.770;2023-02-18T01:05:51;96319.06;;;8.51;99.52
53916;BME280;39827;49.652;18.770;2023-02-18T01:08:19;96311.94;;;8.74;100.00
53916;BME280;39827;49.652;18.770;2023-02-18T01:10:46;96316.88;;;8.93;98.95
53916;BME280;39827;49.652;18.770;2023-02-18T01:13:13;96309.81;;;8.48;97.66
53916;BME280;39827;49.652;18.770;2023-02-18T01:15:41;96304.38;;;8.33;100.00
53916;BME280;39827;49.652;18.770;2023-02-18T01:18:07;96326.09;;;8.63;98.46
53916;BME280;39827;49.652;18.770;2023-02-18T01:20:34;96321.59;;;8.91;97.01
53916;BME280;39827;49.652;18.770;2023-02-18T01:23:00;96317.91;;;9.24;92.41
53916;BME280;39827;49.652;18.770;2023-02-18T01:25:25;96340.09;;;9.61;88.83
53916;BME280;39827;49.652;18.770;2023-02-18T01:27:50;96325.91;;;9.78;87.91
53916;BME280;39827;49.652;18.770;2023-02-18T01:30:17;96325.94;;;9.83;86.41
53916;BME280;39827;49.652;18.770;2023-02-18T01:32:42;96332.78;;;9.79;86.49
53916;BME280;39827;49.652;18.770;2023-02-18T01:35:14;96347.41;;;9.87;85.52
53916;BME280;39827;49.652;18.770;2023-02-18T01:37:39;96348.16;;;9.82;84.54
53916;BME280;39827;49.652;18.770;2023-02-18T01:40:06;96338.09;;;9.79;84.77
53916;BME280;39827;49.652;18.770;2023-02-18T01:42:31;96351.84;;;9.76;84.49
53916;BME280;39827;49.652;18.770;2023-02-18T01:50:30;96350.75;;;9.72;85.68
53916;BME280;39827;49.652;18.770;2023-02-18T01:52:56;96356.03;;;9.72;85.62
53916;BME280;39827;49.652;18.770;2023-02-18T01:55:22;96351.19;;;9.58;86.29
53916;BME280;39827;49.652;18.770;2023-02-18T01:57:47;96356.50;;;9.63;85.60
53916;BME280;39827;49.652;18.770;2023-02-18T02:00:15;96352.78;;;9.59;86.50
53916;BME280;39827;49.652;18.770;2023-02-18T02:02:44;96354.88;;;9.57;86.69
53916;BME280;39827;49.652;18.770;2023-02-18T02:05:10;96368.59;;;9.54;87.16
53916;BME280;39827;49.652;18.770;2023-02-18T02:07:35;96365.44;;;9.57;86.85
53916;BME280;39827;49.652;18.770;2023-02-18T02:10:02;96356.63;;;9.46;86.62
53916;BME280;39827;49.652;18.770;2023-02-18T02:29:52;96362.56;;;9.64;84.26
53916;BME280;39827;49.652;18.770;2023-02-18T02:35:36;96384.56;;;9.70;85.16
53916;BME280;39827;49.652;18.770;2023-02-18T02:38:52;96394.56;;;9.62;86.93
53916;BME280;39827;49.652;18.770;2023-02-18T02:44:18;96385.03;;;9.29;93.50
53916;BME280;39827;49.652;18.770;2023-02-18T02:46:46;96386.75;;;9.12;95.59
53916;BME280;39827;49.652;18.770;2023-02-18T02:52:07;96410.00;;;9.10;95.50
53916;BME280;39827;49.652;18.770;2023-02-18T02:54:35;96429.13;;;8.95;96.62
53916;BME280;39827;49.652;18.770;2023-02-18T02:59:57;96409.28;;;8.93;98.28
53916;BME280;39827;49.652;18.770;2023-02-18T03:02:52;96418.38;;;9.02;98.21
53916;BME280;39827;49.652;18.770;2023-02-18T03:10:48;96427.22;;;8.68;100.00
53916;BME280;39827;49.652;18.770;2023-02-18T03:18:28;96412.56;;;8.55;100.00
53916;BME280;39827;49.652;18.770;2023-02-18T03:21:04;96405.75;;;8.59;100.00
53916;BME280;39827;49.652;18.770;2023-02-18T03:23:35;96387.38;;;8.47;99.89
53916;BME280;39827;49.652;18.770;2023-02-18T03:26:03;96410.41;;;7.90;100.00
53916;BME280;39827;49.652;18.770;2023-02-18T03:28:30;96418.06;;;7.75;100.00
53916;BME280;39827;49.652;18.770;2023-02-18T03:31:03;96398.81;;;7.74;100.00
53916;BME280;39827;49.652;18.770;2023-02-18T03:33:36;96423.41;;;7.80;100.00
53916;BME280;39827;49.652;18.770;2023-02-18T03:36:03;96408.16;;;7.48;100.00
53916;BME280;39827;49.652;18.770;2023-02-18T03:38:38;96438.47;;;7.33;100.00
53916;BME280;39827;49.652;18.770;2023-02-18T03:41:04;96404.44;;;6.97;100.00
53916;BME280;39827;49.652;18.770;2023-02-18T03:43:31;96436.03;;;6.97;100.00
53916;BME280;39827;49.652;18.770;2023-02-18T03:45:57;96442.03;;;6.81;100.00
53916;BME280;39827;49.652;18.770;2023-02-18T03:48:24;96444.22;;;6.72;100.00
53916;BME280;39827;49.652;18.770;2023-02-18T03:50:49;96429.97;;;6.56;100.00
53916;BME280;39827;49.652;18.770;2023-02-18T03:53:14;96431.47;;;6.51;100.00
53916;BME280;39827;49.652;18.770;2023-02-18T03:55:40;96436.41;;;6.36;100.00
53916;BME280;39827;49.652;18.770;2023-02-18T03:58:07;96426.44;;;6.38;100.00
53916;BME280;39827;49.652;18.770;2023-02-18T04:00:32;96444.78;;;6.21;100.00
53916;BME280;39827;49.652;18.770;2023-02-18T04:02:58;96432.88;;;6.06;100.00
53916;BME280;39827;49.652;18.770;2023-02-18T04:05:23;96441.44;;;6.02;100.00
53916;BME280;39827;49.652;18.770;2023-02-18T04:07:48;96450.06;;;6.09;100.00
53916;BME280;39827;49.652;18.770;2023-02-18T04:10:14;96438.16;;;6.18;100.00
53916;BME280;39827;49.652;18.770;2023-02-18T04:12:39;96449.78;;;6.34;100.00
53916;BME280;39827;49.652;18.770;2023-02-18T04:15:05;96439.16;;;6.17;100.00
53916;BME280;39827;49.652;18.770;2023-02-18T04:17:32;96445.69;;;6.15;100.00
53916;BME280;39827;49.652;18.770;2023-02-18T04:19:57;96435.38;;;6.01;100.00
53916;BME280;39827;49.652;18.770;2023-02-18T04:22:23;96444.50;;;6.46;100.00
53916;BME280;39827;49.652;18.770;2023-02-18T04:24:49;96459.22;;;7.29;97.53
53916;BME280;39827;49.652;18.770;2023-02-18T04:27:14;96456.78;;;7.74;94.43
53916;BME280;39827;49.652;18.770;2023-02-18T04:29:39;96457.34;;;7.93;92.65
53916;BME280;39827;49.652;18.770;2023-02-18T04:32:05;96458.38;;;7.92;94.12
53916;BME280;39827;49.652;18.770;2023-02-18T04:34:30;96468.47;;;7.95;94.55
53916;BME280;39827;49.652;18.770;2023-02-18T04:36:56;96464.59;;;8.20;91.09
53916;BME280;39827;49.652;18.770;2023-02-18T04:39:22;96458.56;;;8.42;90.39
53916;BME280;39827;49.652;18.770;2023-02-18T04:41:47;96472.25;;;8.39;90.67
53916;BME280;39827;49.652;18.770;2023-02-18T04:44:13;96449.28;;;8.40;89.92
53916;BME280;39827;49.652;18.770;2023-02-18T04:46:38;96451.47;;;8.65;88.64
53916;BME280;39827;49.652;18.770;2023-02-18T04:49:03;96457.00;;;8.64;88.79
53916;BME280;39827;49.652;18.770;2023-02-18T04:51:29;96453.88;;;8.50;89.13
53916;BME280;39827;49.652;18.770;2023-02-18T04:53:54;96442.22;;;8.45;89.68
53916;BME280;39827;49.652;18.770;2023-02-18T04:56:20;96449.03;;;8.41;90.63
53916;BME280;39827;49.652;18.770;2023-02-18T04:58:45;96454.38;;;8.46;90.70
53916;BME280;39827;49.652;18.770;2023-02-18T05:01:11;96453.44;;;8.35;90.35
53916;BME280;39827;49.652;18.770;2023-02-18T05:03:36;96451.38;;;8.38;88.94
53916;BME280;39827;49.652;18.770;2023-02-18T05:06:02;96454.78;;;8.55;88.30
53916;BME280;39827;49.652;18.770;2023-02-18T05:08:27;96465.25;;;8.50;88.24
53916;BME280;39827;49.652;18.770;2023-02-18T05:10:53;96454.63;;;8.45;87.55
53916;BME280;39827;49.652;18.770;2023-02-18T05:13:19;96455.91;;;8.59;86.12
53916;BME280;39827;49.652;18.770;2023-02-18T05:15:44;96460.28;;;8.71;85.54
53916;BME280;39827;49.652;18.770;2023-02-18T05:18:09;96451.16;;;8.62;85.12
53916;BME280;39827;49.652;18.770;2023-02-18T05:20:35;96455.41;;;8.63;85.09
53916;BME280;39827;49.652;18.770;2023-02-18T05:23:00;96444.53;;;8.59;84.60
53916;BME280;39827;49.652;18.770;2023-02-18T05:25:26;96456.19;;;8.63;84.62
53916;BME280;39827;49.652;18.770;2023-02-18T05:27:51;96462.00;;;8.60;84.84
53916;BME280;39827;49.652;18.770;2023-02-18T05:30:17;96461.19;;;8.59;83.64
53916;BME280;39827;49.652;18.770;2023-02-18T05:32:42;96447.56;;;8.68;83.44
53916;BME280;39827;49.652;18.770;2023-02-18T05:35:08;96451.72;;;8.64;83.46
53916;BME280;39827;49.652;18.770;2023-02-18T05:37:34;96460.13;;;8.60;82.78
53916;BME280;39827;49.652;18.770;2023-02-18T05:39:59;96447.03;;;8.48;83.95
53916;BME280;39827;49.652;18.770;2023-02-18T05:42:25;96455.84;;;8.37;83.21
53916;BME280;39827;49.652;18.770;2023-02-18T05:44:50;96446.16;;;8.03;85.24
53916;BME280;39827;49.652;18.770;2023-02-18T05:47:16;96463.69;;;7.75;87.26
53916;BME280;39827;49.652;18.770;2023-02-18T05:49:42;96455.25;;;7.44;88.57
53916;BME280;39827;49.652;18.770;2023-02-18T05:52:08;96453.41;;;7.45;89.53
53916;BME280;39827;49.652;18.770;2023-02-18T05:54:34;96454.72;;;7.13;90.43
53916;BME280;39827;49.652;18.770;2023-02-18T05:57:00;96463.28;;;7.37;90.22
53916;BME280;39827;49.652;18.770;2023-02-18T05:59:26;96477.41;;;6.61;93.72
53916;BME280;39827;49.652;18.770;2023-02-18T06:01:52;96475.06;;;6.88;92.39
53916;BME280;39827;49.652;18.770;2023-02-18T06:04:18;96466.94;;;6.90;92.48
53916;BME280;39827;49.652;18.770;2023-02-18T06:06:43;96462.97;;;6.75;92.82
53916;BME280;39827;49.652;18.770;2023-02-18T06:09:09;96471.53;;;6.83;92.94
53916;BME280;39827;49.652;18.770;2023-02-18T06:11:35;96471.72;;;7.22;91.33
53916;BME280;39827;49.652;18.770;2023-02-18T06:14:00;96462.13;;;6.99;91.51
53916;BME280;39827;49.652;18.770;2023-02-18T06:16:26;96480.38;;;7.35;90.92
53916;BME280;39827;49.652;18.770;2023-02-18T06:18:52;96482.25;;;7.51;89.56
53916;BME280;39827;49.652;18.770;2023-02-18T06:21:17;96473.00;;;7.83;88.20
53916;BME280;39827;49.652;18.770;2023-02-18T06:23:42;96479.22;;;8.28;85.58
53916;BME280;39827;49.652;18.770;2023-02-18T06:26:08;96474.06;;;8.39;84.71
53916;BME280;39827;49.652;18.770;2023-02-18T06:28:33;96464.91;;;8.64;82.50
53916;BME280;39827;49.652;18.770;2023-02-18T06:30:59;96479.78;;;8.70;81.48
53916;BME280;39827;49.652;18.770;2023-02-18T06:33:24;96484.44;;;8.85;80.59
53916;BME280;39827;49.652;18.770;2023-02-18T06:36:03;96477.47;;;9.01;80.09
53916;BME280;39827;49.652;18.770;2023-02-18T06:38:33;96491.78;;;9.05;79.86
53916;BME280;39827;49.652;18.770;2023-02-18T06:40:58;96494.91;;;8.97;80.15
53916;BME280;39827;49.652;18.770;2023-02-18T06:43:24;96514.53;;;9.06;80.23
53916;BME280;39827;49.652;18.770;2023-02-18T06:45:50;96499.72;;;9.05;79.95
53916;BME280;39827;49.652;18.770;2023-02-18T06:48:16;96503.59;;;8.97;80.47
53916;BME280;39827;49.652;18.770;2023-02-18T06:50:41;96508.44;;;9.06;80.28
53916;BME280;39827;49.652;18.770;2023-02-18T06:53:07;96501.88;;;9.08;80.59
53916;BME280;39827;49.652;18.770;2023-02-18T06:55:32;96500.34;;;9.12;80.68
53916;BME280;39827;49.652;18.770;2023-02-18T06:57:58;96508.88;;;9.20;81.01
53916;BME280;39827;49.652;18.770;2023-02-18T07:00:23;96522.22;;;9.08;81.54
53916;BME280;39827;49.652;18.770;2023-02-18T07:02:49;96517.59;;;8.98;82.16
53916;BME280;39827;49.652;18.770;2023-02-18T07:05:14;96516.75;;;9.15;82.13
53916;BME280;39827;49.652;18.770;2023-02-18T07:07:39;96521.13;;;9.04;83.79
53916;BME280;39827;49.652;18.770;2023-02-18T07:10:06;96534.78;;;9.23;83.16
53916;BME280;39827;49.652;18.770;2023-02-18T07:12:32;96514.66;;;9.17;83.76
53916;BME280;39827;49.652;18.770;2023-02-18T07:14:57;96517.84;;;8.96;85.36
53916;BME280;39827;49.652;18.770;2023-02-18T07:17:23;96526.91;;;8.83;86.05
53916;BME280;39827;49.652;18.770;2023-02-18T07:19:48;96514.16;;;8.97;85.30
53916;BME280;39827;49.652;18.770;2023-02-18T07:22:13;96505.81;;;8.83;86.02
53916;BME280;39827;49.652;18.770;2023-02-18T07:24:39;96509.06;;;8.91;85.82
53916;BME280;39827;49.652;18.770;2023-02-18T07:27:04;96521.22;;;8.92;86.48
53916;BME280;39827;49.652;18.770;2023-02-18T07:29:30;96513.53;;;8.90;86.31
53916;BME280;39827;49.652;18.770;2023-02-18T07:31:55;96509.97;;;9.02;86.29
53916;BME280;39827;49.652;18.770;2023-02-18T07:34:21;96513.44;;;9.02;85.58
53916;BME280;39827;49.652;18.770;2023-02-18T07:36:46;96521.41;;;9.07;85.03
53916;BME280;39827;49.652;18.770;2023-02-18T07:39:11;96518.09;;;9.17;84.02
53916;BME280;39827;49.652;18.770;2023-02-18T07:41:37;96507.28;;;9.19;83.45
53916;BME280;39827;49.652;18.770;2023-02-18T07:44:02;96525.25;;;9.22;84.08
53916;BME280;39827;49.652;18.770;2023-02-18T07:46:28;96518.59;;;9.14;82.92
53916;BME280;39827;49.652;18.770;2023-02-18T07:48:53;96509.66;;;9.20;84.63
53916;BME280;39827;49.652;18.770;2023-02-18T07:51:19;96517.03;;;9.18;83.44
53916;BME280;39827;49.652;18.770;2023-02-18T07:53:44;96515.13;;;9.13;82.90
53916;BME280;39827;49.652;18.770;2023-02-18T07:56:10;96508.34;;;9.23;82.44
53916;BME280;39827;49.652;18.770;2023-02-18T07:58:37;96517.72;;;9.31;81.33
53916;BME280;39827;49.652;18.770;2023-02-18T08:01:07;96510.50;;;9.26;79.43
53916;BME280;39827;49.652;18.770;2023-02-18T08:03:33;96504.78;;;9.34;79.25
53916;BME280;39827;49.652;18.770;2023-02-18T08:05:59;96500.84;;;9.37;78.68
53916;BME280;39827;49.652;18.770;2023-02-18T08:08:26;96504.94;;;9.50;77.78
53916;BME280;39827;49.652;18.770;2023-02-18T08:10:53;96505.66;;;9.40;77.85
53916;BME280;39827;49.652;18.770;2023-02-18T08:13:19;96496.41;;;9.43;77.11
53916;BME280;39827;49.652;18.770;2023-02-18T08:15:45;96515.84;;;9.59;76.25
53916;BME280;39827;49.652;18.770;2023-02-18T08:18:19;96505.28;;;9.31;76.15
53916;BME280;39827;49.652;18.770;2023-02-18T08:20:46;96511.22;;;9.44;75.46
53916;BME280;39827;49.652;18.770;2023-02-18T08:23:13;96502.06;;;9.51;75.09
53916;BME280;39827;49.652;18.770;2023-02-18T08:25:39;96520.38;;;9.58;74.81
53916;BME280;39827;49.652;18.770;2023-02-18T08:28:04;96512.06;;;9.49;75.92
53916;BME280;39827;49.652;18.770;2023-02-18T08:30:30;96512.28;;;9.43;76.44
53916;BME280;39827;49.652;18.770;2023-02-18T08:32:56;96518.81;;;9.35;76.17
53916;BME280;39827;49.652;18.770;2023-02-18T08:35:21;96515.16;;;9.41;75.63
53916;BME280;39827;49.652;18.770;2023-02-18T08:37:47;96522.56;;;9.39;76.35
53916;BME280;39827;49.652;18.770;2023-02-18T08:40:13;96532.81;;;9.35;75.98
53916;BME280;39827;49.652;18.770;2023-02-18T08:42:38;96533.22;;;9.49;76.02
53916;BME280;39827;49.652;18.770;2023-02-18T08:45:05;96529.53;;;9.50;76.51
53916;BME280;39827;49.652;18.770;2023-02-18T08:47:32;96538.41;;;9.39;76.44
53916;BME280;39827;49.652;18.770;2023-02-18T08:49:57;96515.41;;;9.39;75.24
53916;BME280;39827;49.652;18.770;2023-02-18T08:52:23;96524.94;;;9.41;75.75
53916;BME280;39827;49.652;18.770;2023-02-18T08:54:48;96528.13;;;9.43;75.35
53916;BME280;39827;49.652;18.770;2023-02-18T08:57:13;96522.31;;;9.41;75.98
53916;BME280;39827;49.652;18.770;2023-02-18T08:59:39;96523.78;;;9.31;75.84
53916;BME280;39827;49.652;18.770;2023-02-18T09:02:05;96497.91;;;9.33;75.42
53916;BME280;39827;49.652;18.770;2023-02-18T09:04:31;96508.47;;;9.33;76.43
53916;BME280;39827;49.652;18.770;2023-02-18T09:06:56;96490.34;;;9.15;76.70
53916;BME280;39827;49.652;18.770;2023-02-18T09:09:22;96509.22;;;9.29;77.05
53916;BME280;39827;49.652;18.770;2023-02-18T09:11:47;96500.91;;;9.15;77.26
53916;BME280;39827;49.652;18.770;2023-02-18T09:14:13;96496.41;;;9.15;76.52
53916;BME280;39827;49.652;18.770;2023-02-18T09:16:40;96510.31;;;9.33;76.43
53916;BME280;39827;49.652;18.770;2023-02-18T09:19:05;96509.56;;;9.10;76.86
53916;BME280;39827;49.652;18.770;2023-02-18T09:21:31;96511.47;;;9.15;79.34
53916;BME280;39827;49.652;18.770;2023-02-18T09:23:57;96521.28;;;9.19;78.97
53916;BME280;39827;49.652;18.770;2023-02-18T09:26:23;96514.69;;;9.22;79.08
53916;BME280;39827;49.652;18.770;2023-02-18T09:28:50;96508.16;;;9.02;79.69
53916;BME280;39827;49.652;18.770;2023-02-18T09:31:18;96517.59;;;8.98;79.45
53916;BME280;39827;49.652;18.770;2023-02-18T09:33:48;96536.81;;;9.16;77.75
53916;BME280;39827;49.652;18.770;2023-02-18T09:36:15;96535.78;;;9.17;77.69
53916;BME280;39827;49.652;18.770;2023-02-18T09:38:41;96524.09;;;9.12;78.12
53916;BME280;39827;49.652;18.770;2023-02-18T09:44:08;96527.00;;;9.11;78.57
53916;BME280;39827;49.652;18.770;2023-02-18T09:46:42;96532.47;;;9.04;77.93
53916;BME280;39827;49.652;18.770;2023-02-18T09:49:16;96525.03;;;8.79;79.96
53916;BME280;39827;49.652;18.770;2023-02-18T09:51:43;96527.38;;;8.75;79.81
53916;BME280;39827;49.652;18.770;2023-02-18T09:54:15;96513.41;;;8.80;81.17
53916;BME280;39827;49.652;18.770;2023-02-18T09:56:43;96516.81;;;8.75;82.10
53916;BME280;39827;49.652;18.770;2023-02-18T09:59:16;96502.91;;;8.85;82.27
53916;BME280;39827;49.652;18.770;2023-02-18T10:01:43;96496.34;;;8.65;81.14
53916;BME280;39827;49.652;18.770;2023-02-18T10:04:19;96509.19;;;8.79;82.09
53916;BME280;39827;49.652;18.770;2023-02-18T10:06:50;96494.31;;;8.72;83.79
53916;BME280;39827;49.652;18.770;2023-02-18T10:09:22;96486.34;;;8.90;83.20
53916;BME280;39827;49.652;18.770;2023-02-18T10:11:52;96487.16;;;8.68;84.39
53916;BME280;39827;49.652;18.770;2023-02-18T10:14:19;96482.69;;;8.51;86.25
53916;BME280;39827;49.652;18.770;2023-02-18T10:16:46;96472.59;;;8.65;84.59
53916;BME280;39827;49.652;18.770;2023-02-18T10:19:55;96479.59;;;8.77;85.91
53916;BME280;39827;49.652;18.770;2023-02-18T10:22:15;96458.28;;;8.61;88.96
53916;BME280;39827;49.652;18.770;2023-02-18T10:27:28;96441.53;;;8.72;89.11
53916;BME280;39827;49.652;18.770;2023-02-18T10:29:57;96443.91;;;8.74;86.27
53916;BME280;39827;49.652;18.770;2023-02-18T10:32:32;96437.44;;;8.82;86.59
53916;BME280;39827;49.652;18.770;2023-02-18T10:38:00;96442.13;;;8.57;92.91
53916;BME280;39827;49.652;18.770;2023-02-18T10:40:45;96437.63;;;8.35;94.72
53916;BME280;39827;49.652;18.770;2023-02-18T10:43:29;96430.72;;;8.12;96.39
53916;BME280;39827;49.652;18.770;2023-02-18T10:51:23;96424.34;;;7.91;96.97
53916;BME280;39827;49.652;18.770;2023-02-18T10:53:51;96413.09;;;7.95;99.89
53916;BME280;39827;49.652;18.770;2023-02-18T10:56:37;96419.66;;;7.76;100.00
53916;BME280;39827;49.652;18.770;2023-02-18T10:59:11;96423.66;;;7.95;97.44
53916;BME280;39827;49.652;18.770;2023-02-18T11:01:36;96413.59;;;7.58;100.00
53916;BME280;39827;49.652;18.770;2023-02-18T11:06:42;96406.31;;;7.82;100.00
53916;BME280;39827;49.652;18.770;2023-02-18T11:09:45;96412.31;;;7.61;100.00
53916;BME280;39827;49.652;18.770;2023-02-18T11:12:03;96408.25;;;7.36;100.00
53916;BME280;39827;49.652;18.770;2023-02-18T11:14:44;96409.91;;;7.42;100.00
53916;BME280;39827;49.652;18.770;2023-02-18T11:19:51;96391.88;;;7.34;100.00
53916;BME280;39827;49.652;18.770;2023-02-18T11:22:19;96388.34;;;7.28;100.00
53916;BME280;39827;49.652;18.770;2023-02-18T11:24:46;96373.44;;;7.16;100.00
53916;BME280;39827;49.652;18.770;2023-02-18T11:30:04;96383.47;;;7.02;100.00
53916;BME280;39827;49.652;18.770;2023-02-18T11:32:33;96375.41;;;7.09;100.00
53916;BME280;39827;49.652;18.770;2023-02-18T11:35:01;96362.63;;;7.01;100.00
53916;BME280;39827;49.652;18.770;2023-02-18T11:37:27;96376.63;;;7.36;100.00
53916;BME280;39827;49.652;18.770;2023-02-18T11:39:54;96375.09;;;7.23;100.00
53916;BME280;39827;49.652;18.770;2023-02-18T11:42:22;96351.72;;;7.26;100.00
53916;BME280;39827;49.652;18.770;2023-02-18T11:44:52;96367.63;;;7.32;100.00
53916;BME280;39827;49.652;18.770;2023-02-18T11:47:25;96348.91;;;7.33;100.00
53916;BME280;39827;49.652;18.770;2023-02-18T11:50:19;96354.13;;;7.45;100.00
53916;BME280;39827;49.652;18.770;2023-02-18T11:52:47;96351.25;;;7.12;100.00
53916;BME280;39827;49.652;18.770;2023-02-18T11:57:45;96341.25;;;6.97;100.00
53916;BME280;39827;49.652;18.770;2023-02-18T12:02:58;96323.00;;;6.61;100.00
53916;BME280;39827;49.652;18.770;2023-02-18T12:05:26;96319.69;;;6.66;100.00
53916;BME280;39827;49.652;18.770;2023-02-18T12:08:09;96318.78;;;6.60;100.00
53916;BME280;39827;49.652;18.770;2023-02-18T12:10:41;96303.91;;;6.66;100.00
53916;BME280;39827;49.652;18.770;2023-02-18T12:13:46;96301.44;;;6.76;100.00
53916;BME280;39827;49.652;18.770;2023-02-18T12:16:37;96289.72;;;6.84;100.00
53916;BME280;39827;49.652;18.770;2023-02-18T12:27:19;96260.84;;;6.55;100.00
53916;BME280;39827;49.652;18.770;2023-02-18T12:29:55;96257.47;;;6.60;100.00
53916;BME280;39827;49.652;18.770;2023-02-18T12:43:42;96231.56;;;6.51;100.00
53916;BME280;39827;49.652;18.770;2023-02-18T13:02:15;96184.63;;;6.60;100.00
53916;BME280;39827;49.652;18.770;2023-02-18T13:07:38;96167.00;;;6.61;100.00
53916;BME280;39827;49.652;18.770;2023-02-18T13:13:28;96159.34;;;6.42;100.00
53916;BME280;39827;49.652;18.770;2023-02-18T13:16:01;96149.25;;;6.51;100.00
53916;BME280;39827;49.652;18.770;2023-02-18T13:18:32;96143.63;;;6.47;100.00
53916;BME280;39827;49.652;18.770;2023-02-18T13:21:11;96139.50;;;6.51;100.00
53916;BME280;39827;49.652;18.770;2023-02-18T13:23:59;96140.28;;;6.69;100.00
53916;BME280;39827;49.652;18.770;2023-02-18T13:26:28;96141.59;;;6.49;100.00
53916;BME280;39827;49.652;18.770;2023-02-18T13:31:55;96128.09;;;6.46;100.00
53916;BME280;39827;49.652;18.770;2023-02-18T13:37:06;96120.91;;;6.58;100.00
53916;BME280;39827;49.652;18.770;2023-02-18T13:39:35;96103.84;;;6.61;100.00
53916;BME280;39827;49.652;18.770;2023-02-18T13:47:38;96086.59;;;6.48;100.00
53916;BME280;39827;49.652;18.770;2023-02-18T13:51:01;96086.41;;;6.55;100.00
53916;BME280;39827;49.652;18.770;2023-02-18T13:55:41;96075.97;;;6.60;100.00
53916;BME280;39827;49.652;18.770;2023-02-18T13:58:23;96083.56;;;6.96;100.00
53916;BME280;39827;49.652;18.770;2023-02-18T14:01:00;96076.03;;;6.65;100.00
53916;BME280;39827;49.652;18.770;2023-02-18T14:05:55;96067.34;;;6.64;100.00
53916;BME280;39827;49.652;18.770;2023-02-18T14:08:34;96057.00;;;6.58;100.00
53916;BME280;39827;49.652;18.770;2023-02-18T14:13:41;96055.31;;;6.69;100.00
53916;BME280;39827;49.652;18.770;2023-02-18T14:16:08;96046.31;;;6.64;100.00
53916;BME280;39827;49.652;18.770;2023-02-18T14:28:52;96007.72;;;6.93;100.00
53916;BME280;39827;49.652;18.770;2023-02-18T14:33:58;96010.25;;;6.65;100.00
53916;BME280;39827;49.652;18.770;2023-02-18T14:36:48;95996.50;;;6.58;100.00
53916;BME280;39827;49.652;18.770;2023-02-18T14:45:20;95981.88;;;6.45;100.00
53916;BME280;39827;49.652;18.770;2023-02-18T14:48:08;95961.75;;;6.56;100.00
53916;BME280;39827;49.652;18.770;2023-02-18T14:50:37;95989.38;;;6.75;100.00
53916;BME280;39827;49.652;18.770;2023-02-18T14:53:07;95971.22;;;6.57;100.00
53916;BME280;39827;49.652;18.770;2023-02-18T14:55:40;95979.38;;;6.77;100.00
53916;BME280;39827;49.652;18.770;2023-02-18T14:58:31;95978.41;;;6.84;100.00
53916;BME280;39827;49.652;18.770;2023-02-18T15:01:05;95956.69;;;6.71;100.00
53916;BME280;39827;49.652;18.770;2023-02-18T15:03:31;95956.63;;;6.66;100.00
53916;BME280;39827;49.652;18.770;2023-02-18T15:05:57;95973.91;;;6.39;100.00
53916;BME280;39827;49.652;18.770;2023-02-18T15:08:23;95957.25;;;6.51;100.00
53916;BME280;39827;49.652;18.770;2023-02-18T15:11:04;95966.22;;;6.77;100.00
53916;BME280;39827;49.652;18.770;2023-02-18T15:13:34;95966.66;;;6.69;100.00
53916;BME280;39827;49.652;18.770;2023-02-18T15:16:03;95968.88;;;6.55;100.00
53916;BME280;39827;49.652;18.770;2023-02-18T15:21:38;95946.09;;;6.44;100.00
53916;BME280;39827;49.652;18.770;2023-02-18T15:24:07;95962.50;;;6.51;100.00
53916;BME280;39827;49.652;18.770;2023-02-18T15:26:35;95931.72;;;6.74;100.00
53916;BME280;39827;49.652;18.770;2023-02-18T15:29:14;95954.19;;;7.09;100.00
53916;BME280;39827;49.652;18.770;2023-02-18T15:31:41;95940.75;;;6.83;100.00
53916;BME280;39827;49.652;18.770;2023-02-18T15:34:29;95940.34;;;7.85;100.00
53916;BME280;39827;49.652;18.770;2023-02-18T15:36:59;95915.41;;;8.03;100.00